createdAt,value
2023-08-05T00:01:59.456Z,60.79
2023-08-05T00:04:28.439Z,60.71
2023-08-05T00:06:57.299Z,60.94
2023-08-05T00:09:26.667Z,60.89
2023-08-05T00:11:56.036Z,60.79
2023-08-05T00:14:25.383Z,60.91
2023-08-05T00:16:54.226Z,60.86
2023-08-05T00:19:23.198Z,60.84
2023-08-05T00:21:52.064Z,60.96
2023-08-05T00:24:21.403Z,61.02
2023-08-05T00:26:50.738Z,60.92
2023-08-05T00:29:19.814Z,61.09
2023-08-05T00:31:48.692Z,61.15
2023-08-05T00:34:17.642Z,61.23
2023-08-05T00:36:46.870Z,61.17
2023-08-05T00:39:15.960Z,61.24
2023-08-05T00:41:45.126Z,61.38
2023-08-05T00:44:14.298Z,61.29
2023-08-05T00:46:43.306Z,61.35
2023-08-05T00:49:13.065Z,61.42
2023-08-05T00:51:42.523Z,61.36
2023-08-05T00:54:12.148Z,61.37
2023-08-05T00:56:41.786Z,61.34
2023-08-05T00:59:11.750Z,61.33
2023-08-05T01:01:41.908Z,61.51
2023-08-05T01:04:11.706Z,61.42
2023-08-05T01:06:41.420Z,61.52
2023-08-05T01:09:11.061Z,61.46
2023-08-05T01:11:40.103Z,61.56
2023-08-05T01:14:09.453Z,61.63
2023-08-05T01:16:38.911Z,61.70
2023-08-05T01:19:14.438Z,61.68
2023-08-05T01:21:50.103Z,61.75
2023-08-05T01:24:24.815Z,61.76
2023-08-05T01:26:55.507Z,61.66
2023-08-05T01:29:25.245Z,61.83
2023-08-05T01:31:56.677Z,61.85
2023-08-05T01:34:26.225Z,61.83
2023-08-05T01:36:57.415Z,61.87
2023-08-05T01:39:26.215Z,61.95
2023-08-05T01:41:55.600Z,61.90
2023-08-05T01:44:24.878Z,61.98
2023-08-05T01:46:53.899Z,62.00
2023-08-05T01:49:23.341Z,61.95
2023-08-05T01:51:52.303Z,62.10
2023-08-05T01:54:21.127Z,62.16
2023-08-05T01:56:50.224Z,62.19
2023-08-05T01:59:19.405Z,62.21
2023-08-05T02:01:49.127Z,62.32
2023-08-05T02:04:18.286Z,62.31
2023-08-05T02:06:47.404Z,62.37
2023-08-05T02:09:16.981Z,62.41
2023-08-05T02:11:46.812Z,62.46
2023-08-05T02:14:16.792Z,62.44
2023-08-05T02:16:46.099Z,62.51
2023-08-05T02:19:15.209Z,62.52
2023-08-05T02:21:44.520Z,62.54
2023-08-05T02:24:13.486Z,62.67
2023-08-05T02:26:42.612Z,62.66
2023-08-05T02:29:12.538Z,62.69
2023-08-05T02:31:43.514Z,62.78
2023-08-05T02:34:12.413Z,62.80
2023-08-05T02:36:42.013Z,63.03
2023-08-05T02:39:11.015Z,63.04
2023-08-05T02:41:40.626Z,63.03
2023-08-05T02:44:09.548Z,63.14
2023-08-05T02:46:38.419Z,63.12
2023-08-05T02:49:09.308Z,63.16
2023-08-05T02:51:38.661Z,63.11
2023-08-05T02:54:07.666Z,63.21
2023-08-05T02:56:38.087Z,63.11
2023-08-05T02:59:06.961Z,63.30
2023-08-05T03:01:36.844Z,63.25
2023-08-05T03:04:06.223Z,63.32
2023-08-05T03:06:35.197Z,63.27
2023-08-05T03:09:04.724Z,63.29
2023-08-05T03:11:33.742Z,63.39
2023-08-05T03:14:03.754Z,63.45
2023-08-05T03:16:33.170Z,63.45
2023-08-05T03:19:08.348Z,63.67
2023-08-05T03:21:37.447Z,63.69
2023-08-05T03:24:06.520Z,63.61
2023-08-05T03:26:37.438Z,63.64
2023-08-05T03:29:07.982Z,63.75
2023-08-05T03:31:37.250Z,63.79
2023-08-05T03:34:07.834Z,63.85
2023-08-05T03:36:37.358Z,63.88
2023-08-05T03:39:07.430Z,63.94
2023-08-05T03:41:36.341Z,63.88
2023-08-05T03:44:05.720Z,64.02
2023-08-05T03:46:35.157Z,64.01
2023-08-05T03:49:04.411Z,64.14
2023-08-05T03:51:33.436Z,64.14
2023-08-05T03:54:05.594Z,64.09
2023-08-05T03:56:35.289Z,64.15
2023-08-05T03:59:04.984Z,64.13
2023-08-05T04:01:35.574Z,64.02
2023-08-05T04:04:05.158Z,64.31
2023-08-05T04:06:34.232Z,64.34
2023-08-05T04:09:06.027Z,64.47
2023-08-05T04:11:37.292Z,64.37
2023-08-05T04:14:06.670Z,64.44
2023-08-05T04:16:35.506Z,64.92
2023-08-05T04:19:04.584Z,64.65
2023-08-05T04:21:40.580Z,64.71
2023-08-05T04:24:10.037Z,64.89
2023-08-05T04:26:38.918Z,64.87
2023-08-05T04:29:10.428Z,64.63
2023-08-05T04:31:42.971Z,64.91
2023-08-05T04:34:12.213Z,64.92
2023-08-05T04:36:41.166Z,65.15
2023-08-05T04:39:10.093Z,65.43
2023-08-05T04:41:39.728Z,65.13
2023-08-05T04:44:09.951Z,65.15
2023-08-05T04:46:39.272Z,65.26
2023-08-05T04:49:10.690Z,64.97
2023-08-05T04:51:39.523Z,65.37
2023-08-05T04:54:10.331Z,65.34
2023-08-05T04:56:39.752Z,65.40
2023-08-05T04:59:08.596Z,65.48
2023-08-05T05:01:38.000Z,65.46
2023-08-05T05:04:07.099Z,65.49
2023-08-05T05:06:35.955Z,65.54
2023-08-05T05:09:05.186Z,65.87
2023-08-05T05:11:34.307Z,65.78
2023-08-05T05:14:04.514Z,65.94
2023-08-05T05:16:33.534Z,65.94
2023-08-05T05:19:02.724Z,65.86
2023-08-05T05:21:32.284Z,66.07
2023-08-05T05:24:01.602Z,65.82
2023-08-05T05:26:30.585Z,66.20
2023-08-05T05:28:59.403Z,66.07
2023-08-05T05:31:28.406Z,66.35
2023-08-05T05:33:57.458Z,66.22
2023-08-05T05:36:27.052Z,66.17
2023-08-05T05:38:56.007Z,66.27
2023-08-05T05:41:25.183Z,66.11
2023-08-05T05:43:54.070Z,66.10
2023-08-05T05:46:29.513Z,66.26
2023-08-05T05:48:59.014Z,66.21
2023-08-05T05:51:28.178Z,66.13
2023-08-05T05:53:58.290Z,66.34
2023-08-05T05:56:27.799Z,66.34
2023-08-05T05:58:56.976Z,66.42
2023-08-05T06:01:26.418Z,66.19
2023-08-05T06:03:55.898Z,66.37
2023-08-05T06:06:24.961Z,66.11
2023-08-05T06:08:54.036Z,66.10
2023-08-05T06:11:22.982Z,66.05
2023-08-05T06:13:51.923Z,66.09
2023-08-05T06:16:20.899Z,65.97
2023-08-05T06:18:49.787Z,66.06
2023-08-05T06:21:19.228Z,65.99
2023-08-05T06:23:48.473Z,66.08
2023-08-05T06:26:17.430Z,66.04
2023-08-05T06:28:46.323Z,66.15
2023-08-05T06:31:15.549Z,66.13
2023-08-05T06:33:44.765Z,66.04
2023-08-05T06:36:13.729Z,66.00
2023-08-05T06:38:42.785Z,66.05
2023-08-05T06:41:11.682Z,65.89
2023-08-05T06:43:40.983Z,65.93
2023-08-05T06:46:10.732Z,65.98
2023-08-05T06:48:39.959Z,65.82
2023-08-05T06:51:11.897Z,65.81
2023-08-05T06:53:44.983Z,65.92
2023-08-05T06:56:14.307Z,65.82
2023-08-05T06:58:43.358Z,65.82
2023-08-05T07:01:12.214Z,65.71
2023-08-05T07:03:42.581Z,65.56
2023-08-05T07:06:11.634Z,65.57
2023-08-05T07:08:40.524Z,65.45
2023-08-05T07:11:09.356Z,65.51
2023-08-05T07:13:38.259Z,65.62
2023-08-05T07:16:08.361Z,65.54
2023-08-05T07:18:37.301Z,65.59
2023-08-05T07:21:06.475Z,65.36
2023-08-05T07:23:35.694Z,65.40
2023-08-05T07:26:04.773Z,65.25
2023-08-05T07:28:34.035Z,65.21
2023-08-05T07:31:04.708Z,65.22
2023-08-05T07:33:33.852Z,65.23
2023-08-05T07:36:10.155Z,65.13
2023-08-05T07:38:42.317Z,65.22
2023-08-05T07:41:13.372Z,65.13
2023-08-05T07:43:43.116Z,65.09
2023-08-05T07:46:14.178Z,64.97
2023-08-05T07:48:46.187Z,65.18
2023-08-05T07:51:15.086Z,65.20
2023-08-05T07:53:43.984Z,65.18
2023-08-05T07:56:14.624Z,65.31
2023-08-05T07:58:46.228Z,65.02
2023-08-05T08:01:19.991Z,65.06
2023-08-05T08:03:49.376Z,65.09
2023-08-05T08:06:22.095Z,65.14
2023-08-05T08:08:52.208Z,65.11
2023-08-05T08:11:21.399Z,65.01
2023-08-05T08:13:50.576Z,65.08
2023-08-05T08:16:20.903Z,65.12
2023-08-05T08:18:49.894Z,65.06
2023-08-05T08:21:18.761Z,65.25
2023-08-05T08:23:47.674Z,65.15
2023-08-05T08:26:16.927Z,65.25
2023-08-05T08:28:46.494Z,65.20
2023-08-05T08:31:15.406Z,65.15
2023-08-05T08:33:44.949Z,65.14
2023-08-05T08:36:13.804Z,65.18
2023-08-05T08:38:42.985Z,65.19
2023-08-05T08:41:12.178Z,65.25
2023-08-05T08:43:43.673Z,65.29
2023-08-05T08:46:13.596Z,65.19
2023-08-05T08:48:45.293Z,65.19
2023-08-05T08:51:14.736Z,65.11
2023-08-05T08:53:45.503Z,65.15
2023-08-05T08:56:14.858Z,65.08
2023-08-05T08:58:44.210Z,65.28
2023-08-05T09:01:16.888Z,65.13
2023-08-05T09:03:49.037Z,65.25
2023-08-05T09:06:18.550Z,65.14
2023-08-05T09:08:47.896Z,65.25
2023-08-05T09:11:17.160Z,65.19
2023-08-05T09:13:46.321Z,65.09
2023-08-05T09:16:15.608Z,65.17
2023-08-05T09:18:45.630Z,65.11
2023-08-05T09:21:23.190Z,65.03
2023-08-05T09:23:54.102Z,65.14
2023-08-05T09:26:33.812Z,65.00
2023-08-05T09:29:05.748Z,64.91
2023-08-05T09:31:35.130Z,64.79
2023-08-05T09:34:09.199Z,65.04
2023-08-05T09:36:41.374Z,64.64
2023-08-05T09:39:13.871Z,64.61
2023-08-05T09:41:52.222Z,64.76
2023-08-05T09:44:21.459Z,64.62
2023-08-05T09:46:52.026Z,64.63
2023-08-05T09:49:23.526Z,64.64
2023-08-05T09:51:54.224Z,64.79
2023-08-05T09:54:31.441Z,64.40
2023-08-05T09:57:03.970Z,64.50
2023-08-05T09:59:33.809Z,64.54
2023-08-05T10:02:03.318Z,64.38
2023-08-05T10:04:32.577Z,64.31
2023-08-05T10:07:02.383Z,64.36
2023-08-05T10:09:31.291Z,64.25
2023-08-05T10:12:02.770Z,64.18
2023-08-05T10:14:32.979Z,64.16
2023-08-05T10:17:02.928Z,64.27
2023-08-05T10:19:32.974Z,64.32
2023-08-05T10:22:11.773Z,64.25
2023-08-05T10:24:55.003Z,64.20
2023-08-05T10:27:38.947Z,64.11
2023-08-05T10:30:10.763Z,64.27
2023-08-05T10:32:53.685Z,64.43
2023-08-05T10:35:40.132Z,64.37
2023-08-05T10:38:17.237Z,64.54
2023-08-05T10:40:51.828Z,64.64
2023-08-05T10:43:35.814Z,64.73
2023-08-05T10:46:13.444Z,64.69
2023-08-05T10:48:43.488Z,64.67
2023-08-05T10:51:14.889Z,64.75
2023-08-05T10:53:58.893Z,64.63
2023-08-05T10:56:31.561Z,64.67
2023-08-05T10:59:02.088Z,64.84
2023-08-05T11:01:56.153Z,65.08
2023-08-05T11:04:29.362Z,65.10
2023-08-05T11:07:00.842Z,64.86
2023-08-05T11:09:34.135Z,65.06
2023-08-05T11:12:03.694Z,65.11
2023-08-05T11:14:35.145Z,65.06
2023-08-05T11:17:07.622Z,65.24
2023-08-05T11:19:54.116Z,65.23
2023-08-05T11:22:25.976Z,65.26
2023-08-05T11:25:02.655Z,65.57
2023-08-05T11:27:33.989Z,65.42
2023-08-05T11:30:13.435Z,65.75
2023-08-05T11:32:53.552Z,65.73
2023-08-05T11:35:22.645Z,65.64
2023-08-05T11:37:51.723Z,65.80
2023-08-05T11:40:21.228Z,66.14
2023-08-05T11:42:50.939Z,66.04
2023-08-05T11:45:20.261Z,65.95
2023-08-05T11:47:49.420Z,66.17
2023-08-05T11:50:18.458Z,66.47
2023-08-05T11:53:07.643Z,66.21
2023-08-05T11:55:40.220Z,66.39
2023-08-05T11:58:10.990Z,66.28
2023-08-05T12:00:44.847Z,66.44
2023-08-05T12:03:14.747Z,66.86
2023-08-05T12:05:45.227Z,66.56
2023-08-05T12:08:34.351Z,66.75
2023-08-05T12:11:03.215Z,67.10
2023-08-05T12:13:35.038Z,67.27
2023-08-05T12:16:14.671Z,67.18
2023-08-05T12:18:44.511Z,67.82
2023-08-05T12:21:13.531Z,67.85
2023-08-05T12:23:42.770Z,68.07
2023-08-05T12:26:13.478Z,67.76
2023-08-05T12:28:42.401Z,68.16
2023-08-05T12:31:13.890Z,68.12
2023-08-05T12:33:43.025Z,68.23
2023-08-05T12:36:12.358Z,68.55
2023-08-05T12:38:41.249Z,68.38
2023-08-05T12:41:11.557Z,68.34
2023-08-05T12:43:40.712Z,68.21
2023-08-05T12:46:09.711Z,68.73
2023-08-05T12:48:38.818Z,68.53
2023-08-05T12:51:08.019Z,68.98
2023-08-05T12:53:37.230Z,68.93
2023-08-05T12:56:06.681Z,69.30
2023-08-05T12:58:35.922Z,69.02
2023-08-05T13:01:05.216Z,69.16
2023-08-05T13:03:35.027Z,69.35
2023-08-05T13:06:04.491Z,69.39
2023-08-05T13:08:33.535Z,69.38
2023-08-05T13:11:02.385Z,69.33
2023-08-05T13:13:31.397Z,69.22
2023-08-05T13:16:00.279Z,69.43
2023-08-05T13:18:29.254Z,69.35
2023-08-05T13:20:58.183Z,69.53
2023-08-05T13:23:27.866Z,69.42
2023-08-05T13:25:57.091Z,69.57
2023-08-05T13:28:26.368Z,69.74
2023-08-05T13:31:02.078Z,69.83
2023-08-05T13:33:31.444Z,69.88
2023-08-05T13:36:00.741Z,69.78
2023-08-05T13:38:29.723Z,69.77
2023-08-05T13:40:58.664Z,70.17
2023-08-05T13:43:27.724Z,69.90
2023-08-05T13:45:57.603Z,69.96
2023-08-05T13:48:28.496Z,69.92
2023-08-05T13:51:04.327Z,70.26
2023-08-05T13:53:33.612Z,70.43
2023-08-05T13:56:02.956Z,70.08
2023-08-05T13:58:32.655Z,70.28
2023-08-05T14:01:03.391Z,70.29
2023-08-05T14:03:32.702Z,70.47
2023-08-05T14:06:02.231Z,70.82
2023-08-05T14:08:32.024Z,70.70
2023-08-05T14:11:00.963Z,70.63
2023-08-05T14:13:30.413Z,70.51
2023-08-05T14:15:59.588Z,70.81
2023-08-05T14:18:29.253Z,70.66
2023-08-05T14:20:58.412Z,70.85
2023-08-05T14:23:27.669Z,71.42
2023-08-05T14:25:56.580Z,71.34
2023-08-05T14:28:26.220Z,72.22
2023-08-05T14:30:55.148Z,71.76
2023-08-05T14:33:24.436Z,72.36
2023-08-05T14:35:53.232Z,72.88
2023-08-05T14:38:22.170Z,73.20
2023-08-05T14:40:51.180Z,73.03
2023-08-05T14:43:20.140Z,72.94
2023-08-05T14:45:49.174Z,73.85
2023-08-05T14:48:18.599Z,74.62
2023-08-05T14:50:47.584Z,73.92
2023-08-05T14:53:16.776Z,74.01
2023-08-05T14:55:56.507Z,73.62
2023-08-05T14:58:25.644Z,73.33
2023-08-05T15:00:54.696Z,73.56
2023-08-05T15:03:24.021Z,73.19
2023-08-05T15:05:55.290Z,73.37
2023-08-05T15:08:26.040Z,73.89
2023-08-05T15:11:01.340Z,73.54
2023-08-05T15:13:30.568Z,73.40
2023-08-05T15:15:59.549Z,73.54
2023-08-05T15:18:28.609Z,74.23
2023-08-05T15:21:02.374Z,73.71
2023-08-05T15:23:31.919Z,74.41
2023-08-05T15:26:03.276Z,73.88
2023-08-05T15:28:32.593Z,74.23
2023-08-05T15:31:01.956Z,74.22
2023-08-05T15:33:31.023Z,74.35
2023-08-05T15:35:59.945Z,74.12
2023-08-05T15:38:29.212Z,74.43
2023-08-05T15:41:01.420Z,73.97
2023-08-05T15:43:30.411Z,74.35
2023-08-05T15:45:59.359Z,74.98
2023-08-05T15:48:28.558Z,75.00
2023-08-05T15:51:03.832Z,74.90
2023-08-05T15:53:32.896Z,74.64
2023-08-05T15:56:04.334Z,76.05
2023-08-05T15:58:33.351Z,74.86
2023-08-05T16:01:03.180Z,75.37
2023-08-05T16:03:33.562Z,75.79
2023-08-05T16:06:04.330Z,75.64
2023-08-05T16:08:34.594Z,75.49
2023-08-05T16:11:05.372Z,76.02
2023-08-05T16:13:34.997Z,76.08
2023-08-05T16:16:11.883Z,76.36
2023-08-05T16:18:42.463Z,76.15
2023-08-05T16:21:16.924Z,75.68
2023-08-05T16:23:46.690Z,76.53
2023-08-05T16:26:16.845Z,76.16
2023-08-05T16:28:47.587Z,75.45
2023-08-05T16:31:17.968Z,75.47
2023-08-05T16:33:47.609Z,75.68
2023-08-05T16:36:16.890Z,75.48
2023-08-05T16:38:46.872Z,75.38
2023-08-05T16:41:15.758Z,75.60
2023-08-05T16:43:45.078Z,75.64
2023-08-05T16:46:14.099Z,75.41
2023-08-05T16:48:43.430Z,75.78
2023-08-05T16:51:12.646Z,75.22
2023-08-05T16:53:42.109Z,76.31
2023-08-05T16:56:11.347Z,76.86
2023-08-05T16:58:43.236Z,76.18
2023-08-05T17:01:14.937Z,77.08
2023-08-05T17:03:46.368Z,76.77
2023-08-05T17:06:16.539Z,76.15
2023-08-05T17:08:45.766Z,76.57
2023-08-05T17:11:15.264Z,76.12
2023-08-05T17:13:48.343Z,76.95
2023-08-05T17:16:19.338Z,76.66
2023-08-05T17:18:48.349Z,76.47
2023-08-05T17:21:18.295Z,77.16
2023-08-05T17:23:48.156Z,77.36
2023-08-05T17:26:18.382Z,77.03
2023-08-05T17:28:47.976Z,77.56
2023-08-05T17:31:16.888Z,77.25
2023-08-05T17:33:45.799Z,78.16
2023-08-05T17:36:14.748Z,77.85
2023-08-05T17:38:44.284Z,77.60
2023-08-05T17:41:13.064Z,77.90
2023-08-05T17:43:42.376Z,78.35
2023-08-05T17:46:11.659Z,77.38
2023-08-05T17:48:40.911Z,77.50
2023-08-05T17:51:10.217Z,77.84
2023-08-05T17:53:39.201Z,77.58
2023-08-05T17:56:09.415Z,77.05
2023-08-05T17:58:39.506Z,78.24
2023-08-05T18:01:08.798Z,77.96
2023-08-05T18:03:38.094Z,77.38
2023-08-05T18:06:20.392Z,77.72
2023-08-05T18:08:51.654Z,77.71
2023-08-05T18:11:21.361Z,78.10
2023-08-05T18:13:50.309Z,78.43
2023-08-05T18:16:20.572Z,78.51
2023-08-05T18:18:50.395Z,77.84
2023-08-05T18:21:20.401Z,77.74
2023-08-05T18:23:50.316Z,77.62
2023-08-05T18:26:19.588Z,77.55
2023-08-05T18:28:50.637Z,77.90
2023-08-05T18:31:20.055Z,77.81
2023-08-05T18:33:49.091Z,78.03
2023-08-05T18:36:18.557Z,78.45
2023-08-05T18:38:47.867Z,78.25
2023-08-05T18:41:17.477Z,78.03
2023-08-05T18:43:46.843Z,78.21
2023-08-05T18:46:15.949Z,78.03
2023-08-05T18:48:45.128Z,78.51
2023-08-05T18:51:15.034Z,78.65
2023-08-05T18:53:44.137Z,78.96
2023-08-05T18:56:14.125Z,78.38
2023-08-05T18:58:43.465Z,78.17
2023-08-05T19:01:12.489Z,78.20
2023-08-05T19:03:41.607Z,77.80
2023-08-05T19:06:11.083Z,78.02
2023-08-05T19:08:43.107Z,77.86
2023-08-05T19:11:15.507Z,77.83
2023-08-05T19:13:44.873Z,77.73
2023-08-05T19:16:14.524Z,77.75
2023-08-05T19:18:43.962Z,77.54
2023-08-05T19:21:13.321Z,78.05
2023-08-05T19:23:42.079Z,77.88
2023-08-05T19:26:11.307Z,77.52
2023-08-05T19:28:40.839Z,77.63
2023-08-05T19:31:10.401Z,78.21
2023-08-05T19:33:41.271Z,77.50
2023-08-05T19:36:15.088Z,77.75
2023-08-05T19:38:45.096Z,77.73
2023-08-05T19:41:14.111Z,77.91
2023-08-05T19:43:43.655Z,77.53
2023-08-05T19:46:24.072Z,77.77
2023-08-05T19:48:59.901Z,77.76
2023-08-05T19:51:29.995Z,77.49
2023-08-05T19:53:58.941Z,78.02
2023-08-05T19:56:28.109Z,77.63
2023-08-05T19:58:57.796Z,77.63
2023-08-05T20:01:27.271Z,77.77
2023-08-05T20:03:57.219Z,77.94
2023-08-05T20:06:26.309Z,77.64
2023-08-05T20:08:57.445Z,77.67
2023-08-05T20:11:31.293Z,77.36
2023-08-05T20:14:00.612Z,77.54
2023-08-05T20:16:39.680Z,77.54
2023-08-05T20:19:22.448Z,77.36
2023-08-05T20:22:09.419Z,77.45
2023-08-05T20:24:50.691Z,77.47
2023-08-05T20:27:22.804Z,77.38
2023-08-05T20:29:53.042Z,77.38
2023-08-05T20:32:27.942Z,77.51
2023-08-05T20:35:04.333Z,77.55
2023-08-05T20:37:47.891Z,77.61
2023-08-05T20:40:30.220Z,77.27
2023-08-05T20:43:13.296Z,77.43
2023-08-05T20:46:06.064Z,77.35
2023-08-05T20:48:48.291Z,77.65
2023-08-05T20:51:18.944Z,77.64
2023-08-05T20:53:48.185Z,77.37
2023-08-05T20:56:17.295Z,77.53
2023-08-05T20:58:53.542Z,77.65
2023-08-05T21:01:32.764Z,78.13
2023-08-05T21:04:18.621Z,78.14
2023-08-05T21:06:56.400Z,77.66
2023-08-05T21:09:27.841Z,78.29
2023-08-05T21:11:57.557Z,77.92
2023-08-05T21:14:28.900Z,77.93
2023-08-05T21:17:02.086Z,77.94
2023-08-05T21:19:38.379Z,77.81
2023-08-05T21:22:17.178Z,77.76
2023-08-05T21:24:59.713Z,77.67
2023-08-05T21:27:37.999Z,78.19
2023-08-05T21:30:17.792Z,77.65
2023-08-05T21:32:48.480Z,77.64
2023-08-05T21:35:19.470Z,77.90
2023-08-05T21:38:00.473Z,77.72
2023-08-05T21:40:38.019Z,77.70
2023-08-05T21:43:12.279Z,78.24
2023-08-05T21:45:51.625Z,77.76
2023-08-05T21:48:25.541Z,77.76
2023-08-05T21:50:57.784Z,78.11
2023-08-05T21:53:27.194Z,77.86
2023-08-05T21:55:59.335Z,77.91
2023-08-05T21:58:34.317Z,77.80
2023-08-05T22:01:05.098Z,77.93
2023-08-05T22:03:34.655Z,78.37
2023-08-05T22:06:11.158Z,78.33
2023-08-05T22:08:41.185Z,78.48
2023-08-05T22:11:10.935Z,78.10
2023-08-05T22:13:40.295Z,78.26
2023-08-05T22:16:10.145Z,78.32
2023-08-05T22:18:39.216Z,78.35
2023-08-05T22:21:08.656Z,78.35
2023-08-05T22:23:37.706Z,78.07
2023-08-05T22:26:07.474Z,78.16
2023-08-05T22:28:36.763Z,78.07
2023-08-05T22:31:06.588Z,78.12
2023-08-05T22:33:35.516Z,78.09
2023-08-05T22:36:12.144Z,78.65
2023-08-05T22:38:41.119Z,78.25
2023-08-05T22:41:10.027Z,78.39
2023-08-05T22:43:39.583Z,78.47
2023-08-05T22:46:08.508Z,78.66
2023-08-05T22:48:37.791Z,78.42
2023-08-05T22:51:10.050Z,78.75
2023-08-05T22:53:39.564Z,78.66
2023-08-05T22:56:08.787Z,78.80
2023-08-05T22:58:37.540Z,78.70
2023-08-05T23:01:06.761Z,78.45
2023-08-05T23:03:36.366Z,78.64
2023-08-05T23:06:05.749Z,78.41
2023-08-05T23:08:34.664Z,78.73
2023-08-05T23:11:07.938Z,78.70
2023-08-05T23:13:37.849Z,79.37
2023-08-05T23:16:11.839Z,79.13
2023-08-05T23:18:40.978Z,79.66
2023-08-05T23:21:10.709Z,79.47
2023-08-05T23:23:39.862Z,79.60
2023-08-05T23:26:10.113Z,79.50
2023-08-05T23:28:38.986Z,79.12
2023-08-05T23:31:07.862Z,79.32
2023-08-05T23:33:37.262Z,79.45
2023-08-05T23:36:06.465Z,80.24
2023-08-05T23:38:35.896Z,79.83
2023-08-05T23:41:05.144Z,79.61
2023-08-05T23:43:34.264Z,80.29
2023-08-05T23:46:03.337Z,79.79
2023-08-05T23:48:32.811Z,79.90
2023-08-05T23:51:02.244Z,79.69
2023-08-05T23:53:31.204Z,79.86
2023-08-05T23:56:00.433Z,79.76
2023-08-05T23:58:29.266Z,79.63
